createdAt,value
2023-12-05T00:00:10.812Z,24.29
2023-12-05T00:00:53.515Z,24.13
2023-12-05T00:01:36.570Z,24.20
2023-12-05T00:02:16.830Z,24.22
2023-12-05T00:02:56.740Z,24.23
2023-12-05T00:03:37.885Z,24.42
2023-12-05T00:04:17.726Z,24.30
2023-12-05T00:04:57.917Z,24.07
2023-12-05T00:05:38.372Z,24.14
2023-12-05T00:06:18.073Z,24.39
2023-12-05T00:06:57.899Z,24.24
2023-12-05T00:07:37.877Z,24.35
2023-12-05T00:08:19.636Z,24.50
2023-12-05T00:08:59.278Z,24.05
2023-12-05T00:09:39.021Z,24.01
2023-12-05T00:10:19.023Z,24.15
2023-12-05T00:10:58.870Z,24.03
2023-12-05T00:11:42.489Z,24.12
2023-12-05T00:12:22.227Z,24.18
2023-12-05T00:13:05.714Z,24.25
2023-12-05T00:13:45.730Z,24.18
2023-12-05T00:14:25.465Z,24.11
2023-12-05T00:15:05.966Z,24.07
2023-12-05T00:15:45.984Z,23.86
2023-12-05T00:16:25.937Z,23.91
2023-12-05T00:17:05.879Z,23.97
2023-12-05T00:17:46.260Z,23.97
2023-12-05T00:18:27.213Z,24.05
2023-12-05T00:19:07.105Z,24.03
2023-12-05T00:19:46.973Z,24.00
2023-12-05T00:20:26.655Z,24.00
2023-12-05T00:21:07.714Z,23.95
2023-12-05T00:21:47.617Z,23.85
2023-12-05T00:22:30.459Z,23.76
2023-12-05T00:23:10.251Z,23.72
2023-12-05T00:23:50.163Z,23.70
2023-12-05T00:24:30.004Z,23.62
2023-12-05T00:25:10.801Z,23.40
2023-12-05T00:25:50.578Z,23.37
2023-12-05T00:26:30.416Z,23.38
2023-12-05T00:27:11.340Z,23.44
2023-12-05T00:27:51.166Z,23.49
2023-12-05T00:28:31.770Z,23.46
2023-12-05T00:29:11.717Z,23.43
2023-12-05T00:29:51.786Z,23.30
2023-12-05T00:30:31.483Z,23.09
2023-12-05T00:31:11.473Z,23.11
2023-12-05T00:31:51.461Z,23.27
2023-12-05T00:32:31.276Z,23.45
2023-12-05T00:33:11.572Z,23.33
2023-12-05T00:33:51.930Z,23.20
2023-12-05T00:34:32.059Z,23.31
2023-12-05T00:35:11.859Z,23.14
2023-12-05T00:35:51.567Z,23.22
2023-12-05T00:36:31.300Z,23.17
2023-12-05T00:37:11.182Z,23.36
2023-12-05T00:37:51.184Z,23.38
2023-12-05T00:38:30.932Z,23.30
2023-12-05T00:39:10.657Z,23.14
2023-12-05T00:39:50.689Z,23.20
2023-12-05T00:40:31.974Z,23.43
2023-12-05T00:41:11.897Z,23.54
2023-12-05T00:41:51.652Z,23.52
2023-12-05T00:42:31.551Z,23.39
2023-12-05T00:43:11.479Z,23.53
2023-12-05T00:43:51.187Z,23.38
2023-12-05T00:44:30.892Z,23.44
2023-12-05T00:45:14.637Z,23.31
2023-12-05T00:45:54.416Z,23.29
2023-12-05T00:46:34.622Z,23.53
2023-12-05T00:47:14.298Z,23.40
2023-12-05T00:47:55.609Z,23.23
2023-12-05T00:48:35.876Z,23.27
2023-12-05T00:49:15.836Z,23.35
2023-12-05T00:49:55.699Z,23.44
2023-12-05T00:50:40.800Z,23.41
2023-12-05T00:51:25.446Z,23.35
2023-12-05T00:52:05.803Z,23.14
2023-12-05T00:52:45.660Z,23.18
2023-12-05T00:53:25.736Z,23.04
2023-12-05T00:54:05.805Z,22.74
2023-12-05T00:54:45.669Z,22.78
2023-12-05T00:55:25.366Z,22.52
2023-12-05T00:56:05.570Z,22.57
2023-12-05T00:56:45.282Z,22.64
2023-12-05T00:57:25.754Z,22.54
2023-12-05T00:58:05.520Z,22.49
2023-12-05T00:58:45.412Z,22.27
2023-12-05T00:59:25.484Z,22.49
2023-12-05T01:00:07.307Z,22.63
2023-12-05T01:00:47.222Z,22.47
2023-12-05T01:01:27.357Z,22.75
2023-12-05T01:02:07.184Z,23.03
2023-12-05T01:02:46.901Z,23.01
2023-12-05T01:03:26.714Z,23.04
2023-12-05T01:04:06.872Z,23.04
2023-12-05T01:04:46.971Z,22.91
2023-12-05T01:05:27.084Z,22.66
2023-12-05T01:06:21.238Z,22.45
2023-12-05T01:07:01.482Z,22.53
2023-12-05T01:07:41.198Z,22.70
2023-12-05T01:08:20.921Z,22.98
2023-12-05T01:09:00.736Z,22.69
2023-12-05T01:09:44.118Z,22.59
2023-12-05T01:10:24.252Z,22.48
2023-12-05T01:11:04.015Z,22.74
2023-12-05T01:11:43.702Z,22.48
2023-12-05T01:12:23.705Z,22.55
2023-12-05T01:13:13.052Z,22.66
2023-12-05T01:13:52.718Z,22.89
2023-12-05T01:14:32.505Z,23.05
2023-12-05T01:15:12.604Z,22.60
2023-12-05T01:15:52.762Z,22.63
2023-12-05T01:16:32.544Z,22.79
2023-12-05T01:17:12.275Z,23.08
2023-12-05T01:17:53.424Z,22.88
2023-12-05T01:18:33.515Z,22.84
2023-12-05T01:19:13.778Z,22.80
2023-12-05T01:19:53.513Z,22.99
2023-12-05T01:20:33.482Z,22.89
2023-12-05T01:21:13.550Z,22.66
2023-12-05T01:21:53.276Z,22.65
2023-12-05T01:22:33.019Z,22.84
2023-12-05T01:23:13.040Z,22.80
2023-12-05T01:23:52.772Z,22.62
2023-12-05T01:24:37.234Z,22.55
2023-12-05T01:25:18.189Z,22.64
2023-12-05T01:25:58.016Z,22.73
2023-12-05T01:26:37.773Z,22.60
2023-12-05T01:27:17.545Z,22.59
2023-12-05T01:27:57.457Z,22.78
2023-12-05T01:28:37.405Z,22.60
2023-12-05T01:29:17.133Z,22.70
2023-12-05T01:29:56.899Z,22.98
2023-12-05T01:30:37.306Z,22.88
2023-12-05T01:31:17.242Z,22.66
2023-12-05T01:31:57.226Z,22.57
2023-12-05T01:32:36.924Z,22.45
2023-12-05T01:33:16.782Z,22.42
2023-12-05T01:33:56.759Z,22.64
2023-12-05T01:34:37.280Z,22.52
2023-12-05T01:35:17.032Z,22.36
2023-12-05T01:35:56.824Z,22.50
2023-12-05T01:36:37.033Z,22.55
2023-12-05T01:37:16.736Z,22.78
2023-12-05T01:37:56.510Z,22.52
2023-12-05T01:38:37.540Z,22.42
2023-12-05T01:39:17.649Z,22.34
2023-12-05T01:39:57.463Z,22.63
2023-12-05T01:40:37.197Z,22.72
2023-12-05T01:41:18.235Z,22.75
2023-12-05T01:41:59.745Z,22.59
2023-12-05T01:42:40.871Z,22.35
2023-12-05T01:43:20.669Z,22.02
2023-12-05T01:44:00.394Z,22.03
2023-12-05T01:44:40.584Z,22.24
2023-12-05T01:45:20.399Z,22.59
2023-12-05T01:46:00.790Z,22.54
2023-12-05T01:46:40.607Z,22.27
2023-12-05T01:47:20.569Z,22.17
2023-12-05T01:48:00.643Z,21.95
2023-12-05T01:48:42.507Z,21.92
2023-12-05T01:49:28.941Z,21.88
2023-12-05T01:50:17.551Z,22.08
2023-12-05T01:50:57.816Z,22.08
2023-12-05T01:51:38.086Z,21.81
2023-12-05T01:52:18.722Z,21.94
2023-12-05T01:53:02.368Z,22.06
2023-12-05T01:53:43.566Z,22.14
2023-12-05T01:54:23.461Z,22.47
2023-12-05T01:55:03.326Z,22.53
2023-12-05T01:55:45.376Z,22.33
2023-12-05T01:56:25.196Z,22.37
2023-12-05T01:57:05.301Z,22.33
2023-12-05T01:57:47.759Z,22.38
2023-12-05T01:58:28.181Z,22.03
2023-12-05T01:59:09.229Z,21.82
2023-12-05T01:59:49.049Z,21.66
2023-12-05T02:00:29.884Z,21.76
2023-12-05T02:01:12.273Z,21.81
2023-12-05T02:01:52.532Z,21.83
2023-12-05T02:02:32.652Z,21.76
2023-12-05T02:03:12.658Z,21.70
2023-12-05T02:03:53.067Z,21.67
2023-12-05T02:04:33.574Z,21.76
2023-12-05T02:05:15.642Z,22.05
2023-12-05T02:05:56.774Z,22.04
2023-12-05T02:06:37.249Z,22.07
2023-12-05T02:07:18.201Z,21.90
2023-12-05T02:07:58.001Z,21.76
2023-12-05T02:08:39.300Z,21.84
2023-12-05T02:09:19.284Z,22.03
2023-12-05T02:09:59.070Z,21.88
2023-12-05T02:10:38.864Z,21.68
2023-12-05T02:11:18.930Z,21.76
2023-12-05T02:11:58.989Z,21.91
2023-12-05T02:12:41.816Z,21.88
2023-12-05T02:13:21.519Z,21.94
2023-12-05T02:14:01.522Z,21.97
2023-12-05T02:14:41.968Z,21.85
2023-12-05T02:15:21.982Z,21.96
2023-12-05T02:16:32.784Z,22.01
2023-12-05T02:17:26.577Z,22.06
2023-12-05T02:18:25.136Z,22.11
2023-12-05T02:19:30.022Z,22.12
2023-12-05T02:20:37.216Z,21.94
2023-12-05T02:21:22.837Z,21.79
2023-12-05T02:22:07.373Z,21.41
2023-12-05T02:23:19.377Z,21.57
2023-12-05T02:24:20.722Z,21.55
2023-12-05T02:25:21.207Z,21.41
2023-12-05T02:26:30.492Z,21.47
2023-12-05T02:27:43.913Z,21.71
2023-12-05T02:28:24.713Z,21.73
2023-12-05T02:29:05.419Z,21.93
2023-12-05T02:29:51.160Z,21.88
2023-12-05T02:30:30.457Z,21.65
2023-12-05T02:31:10.092Z,21.56
2023-12-05T02:31:50.550Z,21.42
2023-12-05T02:32:30.332Z,21.45
2023-12-05T02:33:10.168Z,21.40
2023-12-05T02:33:51.543Z,21.21
2023-12-05T02:34:31.581Z,21.32
2023-12-05T02:35:13.440Z,21.58
2023-12-05T02:36:03.284Z,21.77
2023-12-05T02:36:57.969Z,21.71
2023-12-05T02:38:04.757Z,21.48
2023-12-05T02:39:19.569Z,21.65
2023-12-05T02:40:23.784Z,21.92
2023-12-05T02:41:12.216Z,21.47
2023-12-05T02:41:56.532Z,21.35
2023-12-05T02:42:37.374Z,21.28
2023-12-05T02:43:26.752Z,21.47
2023-12-05T02:44:15.088Z,21.68
2023-12-05T02:44:57.160Z,21.49
2023-12-05T02:45:40.441Z,21.59
2023-12-05T02:46:21.998Z,21.75
2023-12-05T02:47:04.072Z,21.62
2023-12-05T02:47:47.076Z,21.55
2023-12-05T02:48:28.044Z,21.42
2023-12-05T02:49:09.301Z,21.13
2023-12-05T02:49:49.706Z,20.86
2023-12-05T02:50:33.978Z,20.92
2023-12-05T02:51:14.187Z,20.97
2023-12-05T02:51:56.088Z,21.18
2023-12-05T02:52:37.039Z,21.42
2023-12-05T02:53:16.913Z,21.44
2023-12-05T02:53:57.630Z,21.46
2023-12-05T02:54:37.532Z,21.67
2023-12-05T02:55:17.555Z,21.72
2023-12-05T02:55:57.345Z,21.66
2023-12-05T02:56:38.066Z,21.61
2023-12-05T02:57:17.990Z,21.11
2023-12-05T02:57:57.961Z,21.06
2023-12-05T02:58:37.687Z,21.13
2023-12-05T02:59:17.410Z,21.16
2023-12-05T02:59:57.266Z,20.97
2023-12-05T03:00:37.490Z,21.08
2023-12-05T03:01:17.245Z,21.15
2023-12-05T03:01:57.052Z,21.30
2023-12-05T03:02:36.811Z,21.41
2023-12-05T03:03:16.850Z,21.32
2023-12-05T03:03:56.677Z,21.16
2023-12-05T03:04:36.583Z,21.03
2023-12-05T03:05:16.530Z,21.16
2023-12-05T03:05:56.413Z,21.40
2023-12-05T03:06:36.549Z,21.39
2023-12-05T03:07:16.333Z,21.28
2023-12-05T03:07:56.122Z,21.00
2023-12-05T03:08:35.970Z,21.14
2023-12-05T03:09:15.802Z,21.12
2023-12-05T03:09:55.629Z,21.05
2023-12-05T03:10:35.330Z,20.94
2023-12-05T03:11:15.248Z,21.03
2023-12-05T03:11:54.946Z,21.01
2023-12-05T03:12:35.369Z,21.32
2023-12-05T03:13:15.122Z,21.58
2023-12-05T03:13:55.005Z,21.56
2023-12-05T03:14:35.168Z,21.51
2023-12-05T03:15:15.040Z,21.67
2023-12-05T03:15:55.318Z,21.53
2023-12-05T03:16:35.296Z,21.50
2023-12-05T03:17:15.379Z,21.35
2023-12-05T03:17:55.730Z,21.35
2023-12-05T03:18:35.952Z,21.41
2023-12-05T03:19:16.249Z,21.61
2023-12-05T03:19:56.601Z,21.44
2023-12-05T03:20:36.412Z,21.34
2023-12-05T03:21:22.626Z,21.21
2023-12-05T03:22:02.533Z,20.95
2023-12-05T03:22:42.598Z,20.92
2023-12-05T03:23:22.690Z,21.20
2023-12-05T03:24:02.627Z,21.33
2023-12-05T03:24:42.756Z,21.32
2023-12-05T03:25:22.705Z,21.24
2023-12-05T03:26:02.424Z,21.18
2023-12-05T03:26:43.499Z,21.08
2023-12-05T03:27:23.541Z,20.99
2023-12-05T03:28:03.329Z,20.94
2023-12-05T03:28:43.076Z,21.08
2023-12-05T03:29:22.839Z,21.20
2023-12-05T03:30:02.796Z,21.01
2023-12-05T03:30:42.811Z,21.18
2023-12-05T03:31:22.545Z,21.16
2023-12-05T03:32:02.304Z,21.33
2023-12-05T03:32:42.246Z,21.59
2023-12-05T03:33:21.954Z,21.39
2023-12-05T03:34:01.807Z,21.35
2023-12-05T03:34:42.001Z,21.39
2023-12-05T03:35:22.100Z,21.26
2023-12-05T03:36:01.820Z,21.32
2023-12-05T03:36:41.539Z,21.24
2023-12-05T03:37:21.298Z,21.54
2023-12-05T03:38:01.200Z,21.52
2023-12-05T03:38:41.849Z,21.62
2023-12-05T03:39:21.579Z,21.51
2023-12-05T03:40:01.365Z,21.47
2023-12-05T03:40:41.378Z,21.23
2023-12-05T03:41:21.142Z,21.29
2023-12-05T03:42:00.937Z,21.27
2023-12-05T03:42:40.734Z,21.29
2023-12-05T03:43:20.628Z,21.32
2023-12-05T03:44:00.373Z,21.30
2023-12-05T03:44:40.587Z,21.29
2023-12-05T03:45:20.484Z,21.23
2023-12-05T03:46:00.446Z,21.10
2023-12-05T03:46:40.294Z,21.21
2023-12-05T03:47:20.116Z,21.36
2023-12-05T03:47:59.826Z,21.33
2023-12-05T03:48:39.871Z,21.20
2023-12-05T03:49:19.821Z,21.29
2023-12-05T03:49:59.645Z,21.50
2023-12-05T03:50:39.324Z,21.74
2023-12-05T03:51:19.339Z,21.58
2023-12-05T03:51:59.171Z,21.59
2023-12-05T03:52:38.830Z,21.84
2023-12-05T03:53:18.573Z,21.88
2023-12-05T03:53:58.785Z,21.78
2023-12-05T03:54:38.619Z,21.77
2023-12-05T03:55:18.409Z,21.79
2023-12-05T03:55:58.203Z,21.65
2023-12-05T03:56:38.112Z,21.71
2023-12-05T03:57:18.040Z,21.65
2023-12-05T03:57:57.870Z,21.46
2023-12-05T03:58:37.603Z,21.62
2023-12-05T03:59:17.489Z,21.57
2023-12-05T03:59:57.195Z,21.57
2023-12-05T04:00:37.240Z,21.58
2023-12-05T04:01:18.356Z,21.81
2023-12-05T04:01:58.389Z,21.82
2023-12-05T04:02:38.278Z,21.79
2023-12-05T04:03:18.171Z,21.84
2023-12-05T04:03:58.076Z,21.75
2023-12-05T04:04:38.199Z,21.85
2023-12-05T04:05:18.359Z,21.81
2023-12-05T04:05:58.178Z,21.81
2023-12-05T04:06:38.222Z,22.01
2023-12-05T04:07:18.223Z,21.84
2023-12-05T04:07:57.979Z,21.96
2023-12-05T04:08:37.757Z,21.98
2023-12-05T04:09:17.530Z,21.69
2023-12-05T04:09:57.433Z,21.74
2023-12-05T04:10:37.185Z,21.80
2023-12-05T04:11:17.047Z,21.86
2023-12-05T04:11:56.786Z,21.83
2023-12-05T04:12:37.437Z,21.82
2023-12-05T04:13:17.353Z,22.01
2023-12-05T04:13:57.088Z,22.19
2023-12-05T04:14:37.636Z,22.14
2023-12-05T04:15:17.516Z,21.97
2023-12-05T04:15:57.368Z,22.00
2023-12-05T04:16:37.826Z,21.88
2023-12-05T04:17:17.481Z,22.00
2023-12-05T04:17:57.509Z,21.99
2023-12-05T04:18:37.530Z,22.01
2023-12-05T04:19:17.742Z,22.16
2023-12-05T04:19:58.123Z,22.16
2023-12-05T04:20:38.028Z,22.40
2023-12-05T04:21:22.295Z,22.58
2023-12-05T04:22:02.138Z,22.30
2023-12-05T04:22:41.954Z,22.51
2023-12-05T04:23:21.905Z,22.46
2023-12-05T04:24:02.612Z,22.41
2023-12-05T04:24:42.310Z,22.48
2023-12-05T04:25:22.044Z,22.67
2023-12-05T04:26:01.920Z,22.65
2023-12-05T04:26:41.738Z,22.53
2023-12-05T04:27:22.554Z,22.55
2023-12-05T04:28:02.228Z,22.52
2023-12-05T04:28:42.128Z,22.74
2023-12-05T04:29:22.134Z,22.64
2023-12-05T04:30:02.004Z,22.66
2023-12-05T04:30:42.004Z,22.92
2023-12-05T04:31:22.166Z,23.02
2023-12-05T04:32:04.166Z,22.91
2023-12-05T04:32:43.996Z,23.00
2023-12-05T04:33:23.841Z,23.01
2023-12-05T04:34:03.950Z,23.11
2023-12-05T04:34:45.347Z,23.12
2023-12-05T04:35:25.071Z,23.12
2023-12-05T04:36:04.872Z,23.28
2023-12-05T04:36:44.720Z,23.32
2023-12-05T04:37:24.469Z,23.38
2023-12-05T04:38:04.199Z,23.39
2023-12-05T04:38:43.959Z,23.38
2023-12-05T04:39:24.143Z,23.45
2023-12-05T04:40:04.226Z,23.43
2023-12-05T04:40:43.971Z,23.58
2023-12-05T04:41:23.783Z,23.60
2023-12-05T04:42:04.013Z,23.71
2023-12-05T04:42:43.836Z,23.57
2023-12-05T04:43:23.663Z,23.64
2023-12-05T04:44:03.558Z,23.80
2023-12-05T04:44:43.479Z,23.73
2023-12-05T04:45:23.256Z,23.91
2023-12-05T04:46:02.987Z,23.87
2023-12-05T04:46:42.743Z,23.75
2023-12-05T04:47:22.681Z,23.84
2023-12-05T04:48:02.548Z,23.83
2023-12-05T04:48:42.441Z,23.73
2023-12-05T04:49:22.426Z,23.81
2023-12-05T04:50:02.413Z,23.86
2023-12-05T04:50:43.184Z,23.98
2023-12-05T04:51:23.136Z,24.01
2023-12-05T04:52:03.026Z,23.89
2023-12-05T04:52:42.952Z,23.80
2023-12-05T04:53:22.694Z,23.84
2023-12-05T04:54:02.562Z,24.01
2023-12-05T04:54:42.740Z,23.96
2023-12-05T04:55:22.736Z,24.00
2023-12-05T04:56:02.769Z,24.01
2023-12-05T04:56:42.511Z,24.16
2023-12-05T04:57:22.469Z,24.06
2023-12-05T04:58:02.405Z,24.06
2023-12-05T04:58:42.110Z,24.07
2023-12-05T04:59:21.814Z,24.08
2023-12-05T05:00:01.526Z,24.09
2023-12-05T05:00:41.625Z,24.18
2023-12-05T05:01:21.632Z,24.12
2023-12-05T05:02:01.491Z,24.05
2023-12-05T05:02:41.311Z,24.00
2023-12-05T05:03:21.309Z,24.06
2023-12-05T05:04:02.668Z,24.13
2023-12-05T05:04:44.355Z,24.06
2023-12-05T05:05:24.291Z,24.04
2023-12-05T05:06:04.377Z,24.03
2023-12-05T05:06:44.206Z,24.06
2023-12-05T05:07:24.084Z,24.10
2023-12-05T05:08:03.820Z,24.33
2023-12-05T05:08:44.446Z,24.51
2023-12-05T05:09:24.116Z,24.35
2023-12-05T05:10:03.863Z,24.45
2023-12-05T05:10:43.667Z,24.52
2023-12-05T05:11:25.166Z,24.52
2023-12-05T05:12:06.114Z,24.41
2023-12-05T05:12:46.505Z,24.44
2023-12-05T05:13:26.208Z,24.53
2023-12-05T05:14:06.522Z,24.43
2023-12-05T05:14:46.646Z,24.50
2023-12-05T05:15:26.466Z,24.53
2023-12-05T05:16:08.597Z,24.61
2023-12-05T05:16:48.564Z,24.86
2023-12-05T05:17:28.383Z,24.89
2023-12-05T05:18:08.152Z,24.78
2023-12-05T05:18:48.017Z,24.76
2023-12-05T05:19:27.993Z,24.92
2023-12-05T05:20:08.555Z,24.96
2023-12-05T05:20:48.382Z,24.90
2023-12-05T05:21:28.930Z,24.92
2023-12-05T05:22:08.859Z,24.95
2023-12-05T05:22:51.673Z,25.02
2023-12-05T05:23:31.582Z,24.96
2023-12-05T05:24:11.499Z,25.12
2023-12-05T05:24:51.520Z,25.16
2023-12-05T05:25:31.411Z,25.05
2023-12-05T05:26:11.273Z,24.87
2023-12-05T05:26:51.043Z,24.94
2023-12-05T05:27:32.315Z,25.05
2023-12-05T05:28:12.026Z,24.96
2023-12-05T05:28:51.708Z,24.98
2023-12-05T05:29:31.429Z,24.80
2023-12-05T05:30:12.390Z,24.87
2023-12-05T05:30:56.609Z,24.86
2023-12-05T05:31:36.373Z,25.05
2023-12-05T05:32:16.093Z,25.11
2023-12-05T05:32:56.118Z,25.18
2023-12-05T05:33:36.076Z,25.18
2023-12-05T05:34:15.873Z,25.09
2023-12-05T05:34:55.523Z,25.15
2023-12-05T05:35:35.385Z,25.03
2023-12-05T05:36:18.197Z,25.26
2023-12-05T05:36:58.443Z,25.39
2023-12-05T05:37:38.470Z,25.45
2023-12-05T05:38:18.872Z,25.48
2023-12-05T05:38:58.742Z,25.39
2023-12-05T05:39:38.436Z,25.44
2023-12-05T05:40:18.194Z,25.48
2023-12-05T05:41:09.011Z,25.64
2023-12-05T05:41:49.003Z,25.62
2023-12-05T05:42:28.792Z,25.72
2023-12-05T05:43:08.650Z,25.62
2023-12-05T05:43:48.643Z,25.72
2023-12-05T05:44:29.644Z,25.62
2023-12-05T05:45:09.940Z,25.72
2023-12-05T05:45:49.642Z,25.81
2023-12-05T05:46:29.575Z,25.61
2023-12-05T05:47:09.269Z,25.73
2023-12-05T05:47:50.952Z,25.74
2023-12-05T05:48:30.980Z,25.87
2023-12-05T05:49:11.082Z,25.97
2023-12-05T05:49:51.256Z,26.25
2023-12-05T05:50:31.029Z,26.26
2023-12-05T05:51:11.029Z,26.23
2023-12-05T05:51:50.903Z,26.30
2023-12-05T05:52:30.758Z,26.49
2023-12-05T05:53:10.457Z,26.48
2023-12-05T05:53:50.188Z,26.58
2023-12-05T05:54:30.102Z,26.50
2023-12-05T05:55:10.190Z,26.45
2023-12-05T05:55:49.929Z,26.57
2023-12-05T05:56:29.632Z,26.54
2023-12-05T05:57:09.495Z,26.42
2023-12-05T05:57:49.258Z,26.61
2023-12-05T05:58:29.798Z,26.63
2023-12-05T05:59:09.567Z,26.57
2023-12-05T05:59:49.595Z,26.48
2023-12-05T06:00:29.383Z,26.72
2023-12-05T06:01:09.329Z,26.83
2023-12-05T06:01:50.082Z,26.93
2023-12-05T06:02:30.049Z,26.95
2023-12-05T06:03:10.846Z,26.95
2023-12-05T06:03:50.607Z,26.93
2023-12-05T06:04:30.496Z,26.95
2023-12-05T06:05:10.733Z,26.97
2023-12-05T06:05:50.855Z,27.25
2023-12-05T06:06:30.681Z,27.22
2023-12-05T06:07:10.883Z,27.18
2023-12-05T06:07:50.890Z,27.44
2023-12-05T06:08:30.575Z,27.32
2023-12-05T06:09:11.301Z,27.41
2023-12-05T06:09:51.120Z,27.10
2023-12-05T06:10:31.170Z,26.96
2023-12-05T06:11:11.172Z,26.85
2023-12-05T06:11:51.009Z,27.08
2023-12-05T06:12:30.833Z,27.38
2023-12-05T06:13:10.976Z,27.26
2023-12-05T06:13:50.691Z,27.40
2023-12-05T06:14:30.666Z,27.61
2023-12-05T06:15:10.779Z,27.71
2023-12-05T06:15:50.769Z,27.88
2023-12-05T06:16:30.974Z,27.76
2023-12-05T06:17:10.726Z,27.66
2023-12-05T06:17:50.518Z,27.59
2023-12-05T06:18:30.509Z,27.56
2023-12-05T06:19:10.269Z,27.73
2023-12-05T06:19:50.082Z,27.73
2023-12-05T06:20:29.773Z,27.46
2023-12-05T06:21:10.090Z,27.24
2023-12-05T06:21:50.134Z,27.43
2023-12-05T06:22:29.888Z,27.69
2023-12-05T06:23:09.642Z,27.93
2023-12-05T06:23:49.742Z,28.14
2023-12-05T06:24:29.493Z,28.29
2023-12-05T06:25:09.528Z,28.01
2023-12-05T06:25:49.246Z,28.09
2023-12-05T06:26:29.462Z,28.09
2023-12-05T06:27:09.553Z,28.08
2023-12-05T06:27:50.128Z,28.19
2023-12-05T06:28:30.520Z,28.25
2023-12-05T06:29:10.602Z,28.18
2023-12-05T06:29:50.372Z,28.06
2023-12-05T06:30:30.209Z,28.06
2023-12-05T06:31:10.337Z,28.30
2023-12-05T06:31:50.289Z,28.07
2023-12-05T06:32:30.350Z,28.22
2023-12-05T06:33:10.231Z,28.34
2023-12-05T06:33:51.012Z,28.31
2023-12-05T06:34:31.068Z,28.38
2023-12-05T06:35:11.110Z,28.35
2023-12-05T06:35:50.989Z,28.42
2023-12-05T06:36:30.882Z,28.39
2023-12-05T06:37:10.891Z,28.43
2023-12-05T06:37:54.646Z,28.66
2023-12-05T06:38:34.489Z,28.25
2023-12-05T06:39:14.901Z,28.05
2023-12-05T06:39:55.028Z,28.25
2023-12-05T06:40:34.805Z,28.16
2023-12-05T06:41:14.842Z,28.39
2023-12-05T06:41:54.571Z,28.65
2023-12-05T06:42:34.647Z,28.47
2023-12-05T06:43:14.538Z,28.52
2023-12-05T06:43:54.358Z,28.55
2023-12-05T06:44:34.101Z,28.52
2023-12-05T06:45:14.039Z,28.48
2023-12-05T06:45:53.814Z,28.55
2023-12-05T06:46:33.627Z,28.58
2023-12-05T06:47:13.375Z,28.41
2023-12-05T06:47:53.441Z,28.46
2023-12-05T06:48:33.534Z,28.38
2023-12-05T06:49:13.516Z,28.43
2023-12-05T06:49:57.423Z,28.54
2023-12-05T06:50:38.050Z,28.79
2023-12-05T06:51:21.024Z,28.85
2023-12-05T06:52:02.762Z,28.68
2023-12-05T06:52:42.821Z,28.64
2023-12-05T06:53:22.714Z,28.72
2023-12-05T06:54:02.577Z,28.88
2023-12-05T06:54:42.366Z,28.85
2023-12-05T06:55:22.236Z,28.65
2023-12-05T06:56:02.299Z,28.48
2023-12-05T06:56:42.069Z,28.38
2023-12-05T06:57:21.898Z,28.44
2023-12-05T06:58:01.740Z,28.82
2023-12-05T06:58:41.645Z,29.21
2023-12-05T06:59:21.911Z,29.32
2023-12-05T07:00:01.726Z,29.21
2023-12-05T07:00:42.079Z,28.89
2023-12-05T07:01:22.035Z,28.82
2023-12-05T07:02:01.933Z,28.90
2023-12-05T07:02:41.929Z,28.93
2023-12-05T07:03:21.941Z,28.88
2023-12-05T07:04:02.268Z,29.07
2023-12-05T07:04:42.527Z,28.97
2023-12-05T07:05:22.711Z,29.03
2023-12-05T07:06:02.755Z,28.91
2023-12-05T07:06:44.432Z,29.04
2023-12-05T07:07:25.010Z,29.04
2023-12-05T07:08:05.569Z,28.78
2023-12-05T07:08:45.707Z,28.91
2023-12-05T07:09:25.769Z,29.33
2023-12-05T07:10:07.982Z,29.39
2023-12-05T07:10:47.792Z,29.57
2023-12-05T07:11:28.487Z,29.94
2023-12-05T07:12:08.896Z,29.96
2023-12-05T07:12:48.707Z,29.87
2023-12-05T07:13:28.537Z,29.87
2023-12-05T07:14:10.076Z,29.95
2023-12-05T07:14:50.161Z,30.04
2023-12-05T07:15:30.198Z,30.13
2023-12-05T07:16:10.721Z,29.86
2023-12-05T07:16:50.583Z,29.93
2023-12-05T07:17:30.635Z,29.83
2023-12-05T07:18:11.300Z,29.90
2023-12-05T07:18:51.850Z,30.19
2023-12-05T07:19:31.814Z,30.13
2023-12-05T07:20:12.390Z,30.13
2023-12-05T07:20:53.277Z,29.92
2023-12-05T07:21:33.477Z,30.04
2023-12-05T07:22:14.047Z,30.14
2023-12-05T07:22:54.030Z,30.30
2023-12-05T07:23:33.915Z,30.14
2023-12-05T07:24:13.891Z,30.03
2023-12-05T07:24:53.711Z,30.17
2023-12-05T07:25:33.848Z,30.37
2023-12-05T07:26:13.740Z,30.57
2023-12-05T07:26:54.998Z,29.91
2023-12-05T07:27:36.280Z,29.61
2023-12-05T07:28:17.580Z,29.57
2023-12-05T07:28:57.630Z,29.97
2023-12-05T07:29:37.519Z,30.13
2023-12-05T07:30:17.601Z,29.97
2023-12-05T07:30:59.446Z,29.90
2023-12-05T07:31:39.622Z,29.89
2023-12-05T07:32:19.535Z,29.75
2023-12-05T07:32:59.792Z,30.00
2023-12-05T07:33:40.030Z,30.07
2023-12-05T07:34:20.166Z,29.96
2023-12-05T07:35:00.383Z,30.34
2023-12-05T07:35:40.393Z,30.65
2023-12-05T07:36:20.466Z,30.64
2023-12-05T07:37:00.954Z,30.56
2023-12-05T07:37:40.854Z,30.57
2023-12-05T07:38:20.793Z,30.48
2023-12-05T07:39:01.195Z,30.24
2023-12-05T07:39:41.168Z,30.22
2023-12-05T07:40:21.574Z,30.23
2023-12-05T07:41:01.569Z,30.19
2023-12-05T07:41:42.316Z,30.22
2023-12-05T07:42:22.729Z,30.42
2023-12-05T07:43:02.655Z,30.55
2023-12-05T07:43:42.559Z,30.82
2023-12-05T07:44:22.758Z,31.07
2023-12-05T07:45:03.986Z,30.98
2023-12-05T07:45:44.096Z,30.83
2023-12-05T07:46:24.031Z,31.07
2023-12-05T07:47:05.125Z,30.64
2023-12-05T07:47:45.351Z,30.64
2023-12-05T07:48:25.433Z,30.67
2023-12-05T07:49:05.465Z,30.55
2023-12-05T07:49:48.581Z,30.46
2023-12-05T07:50:28.484Z,30.69
2023-12-05T07:51:08.564Z,30.87
2023-12-05T07:51:50.322Z,30.90
2023-12-05T07:52:30.451Z,30.67
2023-12-05T07:53:10.386Z,30.50
2023-12-05T07:53:55.277Z,30.47
2023-12-05T07:54:35.180Z,30.73
2023-12-05T07:55:15.361Z,30.61
2023-12-05T07:55:55.239Z,30.38
2023-12-05T07:56:35.379Z,30.50
2023-12-05T07:57:17.149Z,30.48
2023-12-05T07:57:57.645Z,30.42
2023-12-05T07:58:37.823Z,30.47
2023-12-05T07:59:17.767Z,30.50
2023-12-05T07:59:58.520Z,30.65
2023-12-05T08:00:41.916Z,30.68
2023-12-05T08:01:21.800Z,30.69
2023-12-05T08:02:02.634Z,30.88
2023-12-05T08:02:43.551Z,30.46
2023-12-05T08:03:23.807Z,30.59
2023-12-05T08:04:04.914Z,30.51
2023-12-05T08:04:45.112Z,30.41
2023-12-05T08:05:25.157Z,30.51
2023-12-05T08:06:05.956Z,30.30
2023-12-05T08:06:46.049Z,30.36
2023-12-05T08:07:26.119Z,30.39
2023-12-05T08:08:09.525Z,30.68
2023-12-05T08:08:49.732Z,30.80
2023-12-05T08:09:29.883Z,30.92
2023-12-05T08:10:13.124Z,30.85
2023-12-05T08:10:53.204Z,30.97
2023-12-05T08:11:33.284Z,30.81
2023-12-05T08:12:13.289Z,30.86
2023-12-05T08:12:53.701Z,30.76
2023-12-05T08:13:33.710Z,30.95
2023-12-05T08:14:14.429Z,30.77
2023-12-05T08:14:54.696Z,30.46
2023-12-05T08:15:34.590Z,30.60
2023-12-05T08:16:14.552Z,30.74
2023-12-05T08:16:54.648Z,30.84
2023-12-05T08:17:34.652Z,30.82
2023-12-05T08:18:14.721Z,31.12
2023-12-05T08:18:54.812Z,31.07
2023-12-05T08:19:35.196Z,30.94
2023-12-05T08:20:15.186Z,31.00
2023-12-05T08:20:55.195Z,30.96
2023-12-05T08:21:35.499Z,30.97
2023-12-05T08:22:15.865Z,31.01
2023-12-05T08:22:55.878Z,31.05
2023-12-05T08:23:35.902Z,30.95
2023-12-05T08:24:15.908Z,30.85
2023-12-05T08:24:56.074Z,30.75
2023-12-05T08:25:36.302Z,30.76
2023-12-05T08:26:16.226Z,30.51
2023-12-05T08:26:56.020Z,30.39
2023-12-05T08:27:37.574Z,30.69
2023-12-05T08:28:18.168Z,30.80
2023-12-05T08:28:58.138Z,30.91
2023-12-05T08:29:37.980Z,31.00
2023-12-05T08:30:18.284Z,30.62
2023-12-05T08:30:58.347Z,30.98
2023-12-05T08:31:38.354Z,30.92
2023-12-05T08:32:18.220Z,31.01
2023-12-05T08:32:59.360Z,31.00
2023-12-05T08:33:39.887Z,31.23
2023-12-05T08:34:19.876Z,31.23
2023-12-05T08:35:00.958Z,31.11
2023-12-05T08:35:41.247Z,31.26
2023-12-05T08:36:21.795Z,31.46
2023-12-05T08:37:02.056Z,31.58
2023-12-05T08:37:42.679Z,31.68
2023-12-05T08:38:23.166Z,31.59
2023-12-05T08:39:03.073Z,31.52
2023-12-05T08:39:43.293Z,31.62
2023-12-05T08:40:23.176Z,31.36
2023-12-05T08:41:03.296Z,31.40
2023-12-05T08:41:43.614Z,31.38
2023-12-05T08:42:23.732Z,31.31
2023-12-05T08:43:05.833Z,31.25
2023-12-05T08:43:45.961Z,31.32
2023-12-05T08:44:25.913Z,31.27
2023-12-05T08:45:06.160Z,31.04
2023-12-05T08:45:46.182Z,31.10